createdAt,value
2023-05-08T00:00:43.799Z,101363.72
2023-05-08T00:01:23.899Z,101329.97
2023-05-08T00:02:04.855Z,101367.94
2023-05-08T00:02:47.159Z,101359.25
2023-05-08T00:03:27.143Z,101367.34
2023-05-08T00:04:15.032Z,101375.03
2023-05-08T00:05:08.866Z,101354.56
2023-05-08T00:06:02.829Z,101372.78
2023-05-08T00:06:57.819Z,101358.88
2023-05-08T00:07:51.841Z,101377.09
2023-05-08T00:08:46.800Z,101367.41
2023-05-08T00:09:33.842Z,101368.25
2023-05-08T00:10:07.897Z,101362.53
2023-05-08T00:10:55.810Z,101355.63
2023-05-08T00:11:29.905Z,101374.88
2023-05-08T00:12:16.808Z,101370.56
2023-05-08T00:12:50.914Z,101371.22
2023-05-08T00:13:37.798Z,101358.31
2023-05-08T00:14:11.922Z,101340.97
2023-05-08T00:14:58.827Z,101338.28
2023-05-08T00:15:32.875Z,101368.72
2023-05-08T00:16:19.851Z,101365.25
2023-05-08T00:16:53.986Z,101344.34
2023-05-08T00:17:40.872Z,101329.41
2023-05-08T00:18:14.897Z,101362.91
2023-05-08T00:19:02.784Z,101361.59
2023-05-08T00:19:36.877Z,101354.94
2023-05-08T00:20:23.833Z,101367.06
2023-05-08T00:20:57.941Z,101355.69
2023-05-08T00:21:45.817Z,101364.28
2023-05-08T00:22:26.888Z,101351.19
2023-05-08T00:23:06.790Z,101366.91
2023-05-08T00:23:46.911Z,101359.25
2023-05-08T00:24:26.816Z,101357.34
2023-05-08T00:25:06.936Z,101364.47
2023-05-08T00:25:46.825Z,101362.53
2023-05-08T00:26:27.891Z,101360.31
2023-05-08T00:27:07.805Z,101352.34
2023-05-08T00:27:47.912Z,101354.06
2023-05-08T00:28:27.843Z,101363.38
2023-05-08T00:29:07.865Z,101365.22
2023-05-08T00:29:48.784Z,101366.78
2023-05-08T00:30:29.912Z,101361.81
2023-05-08T00:31:09.800Z,101364.34
2023-05-08T00:31:49.857Z,101358.47
2023-05-08T00:32:29.822Z,101368.66
2023-05-08T00:33:10.002Z,101349.59
2023-05-08T00:33:49.802Z,101341.88
2023-05-08T00:34:30.949Z,101365.97
2023-05-08T00:35:11.799Z,101358.25
2023-05-08T00:35:51.892Z,101356.34
2023-05-08T00:36:32.839Z,101356.34
2023-05-08T00:37:12.905Z,101352.19
2023-05-08T00:37:52.779Z,101362.69
2023-05-08T00:38:33.866Z,101362.78
2023-05-08T00:39:14.802Z,101363.31
2023-05-08T00:39:54.842Z,101349.78
2023-05-08T00:40:34.796Z,101360.34
2023-05-08T00:41:16.152Z,101339.19
2023-05-08T00:41:55.778Z,101364.78
2023-05-08T00:42:36.886Z,101343.00
2023-05-08T00:43:16.819Z,101347.25
2023-05-08T00:43:56.875Z,101365.94
2023-05-08T00:44:36.762Z,101339.66
2023-05-08T00:45:17.841Z,101356.91
2023-05-08T00:45:58.853Z,101347.22
2023-05-08T00:46:39.967Z,101371.69
2023-05-08T00:47:19.915Z,101361.09
2023-05-08T00:47:59.908Z,101337.94
2023-05-08T00:48:41.796Z,101360.47
2023-05-08T00:49:22.863Z,101353.72
2023-05-08T00:50:02.766Z,101350.44
2023-05-08T00:50:43.851Z,101359.88
2023-05-08T00:51:23.758Z,101352.34
2023-05-08T00:52:03.917Z,101352.84
2023-05-08T00:52:43.757Z,101366.41
2023-05-08T00:53:23.861Z,101362.31
2023-05-08T00:54:03.776Z,101364.50
2023-05-08T00:54:44.846Z,101371.59
2023-05-08T00:55:26.777Z,101355.56
2023-05-08T00:56:07.875Z,101362.31
2023-05-08T00:56:47.751Z,101351.56
2023-05-08T00:57:28.847Z,101366.22
2023-05-08T00:58:08.807Z,101352.34
2023-05-08T00:58:51.196Z,101369.97
2023-05-08T00:59:32.772Z,101378.03
2023-05-08T01:00:14.031Z,101358.84
2023-05-08T01:00:53.784Z,101360.22
2023-05-08T01:01:34.885Z,101371.00
2023-05-08T01:02:16.828Z,101368.66
2023-05-08T01:02:57.910Z,101367.09
2023-05-08T01:03:40.967Z,101370.69
2023-05-08T01:04:20.992Z,101368.84
2023-05-08T01:05:01.729Z,101380.38
2023-05-08T01:05:42.820Z,101366.16
2023-05-08T01:06:22.782Z,101357.63
2023-05-08T01:07:03.867Z,101365.72
2023-05-08T01:07:45.764Z,101365.56
2023-05-08T01:08:25.839Z,101362.94
2023-05-08T01:09:05.773Z,101371.44
2023-05-08T01:09:45.889Z,101362.16
2023-05-08T01:10:25.751Z,101375.97
2023-05-08T01:11:40.814Z,101369.19
2023-05-08T01:13:03.785Z,101383.06
2023-05-08T01:14:20.799Z,101380.72
2023-05-08T01:15:12.653Z,101367.03
2023-05-08T01:16:14.765Z,101379.25
2023-05-08T01:17:12.554Z,101370.94
2023-05-08T01:18:41.748Z,101389.41
2023-05-08T01:19:46.787Z,101384.91
2023-05-08T01:21:02.982Z,101373.88
2023-05-08T01:22:01.761Z,101392.34
2023-05-08T01:23:10.830Z,101391.50
2023-05-08T01:24:42.727Z,101393.66
2023-05-08T01:25:46.759Z,101392.78
2023-05-08T01:26:58.807Z,101397.13
2023-05-08T01:28:34.735Z,101372.22
2023-05-08T01:29:42.839Z,101396.50
2023-05-08T01:31:14.751Z,101398.06
2023-05-08T01:32:20.932Z,101394.53
2023-05-08T01:33:42.854Z,101399.03
2023-05-08T01:34:29.844Z,101401.56
2023-05-08T01:35:35.731Z,101397.97
2023-05-08T01:36:47.741Z,101403.28
2023-05-08T01:37:55.745Z,101400.00
2023-05-08T01:39:08.725Z,101388.63
2023-05-08T01:40:26.741Z,101402.94
2023-05-08T01:41:29.741Z,101393.56
2023-05-08T01:42:16.734Z,101385.28
2023-05-08T01:43:10.881Z,101391.03
2023-05-08T01:44:11.679Z,101401.28
2023-05-08T01:44:58.861Z,101381.25
2023-05-08T01:45:45.737Z,101403.03
2023-05-08T01:46:31.909Z,101385.50
2023-05-08T01:47:17.728Z,101405.53
2023-05-08T01:48:20.872Z,101391.47
2023-05-08T01:49:15.715Z,101402.06
2023-05-08T01:50:02.911Z,101400.94
2023-05-08T01:50:54.703Z,101368.91
2023-05-08T01:51:35.776Z,101399.19
2023-05-08T01:52:52.833Z,101400.50
2023-05-08T01:53:47.857Z,101403.38
2023-05-08T01:54:30.722Z,101400.50
2023-05-08T01:55:16.856Z,101385.66
2023-05-08T01:56:00.700Z,101399.63
2023-05-08T01:56:42.794Z,101381.16
2023-05-08T01:57:24.707Z,101390.78
2023-05-08T01:58:12.746Z,101398.41
2023-05-08T01:59:07.721Z,101367.78
2023-05-08T02:00:03.733Z,101386.78
2023-05-08T02:00:58.963Z,101373.78
2023-05-08T02:01:53.729Z,101383.34
2023-05-08T02:02:58.128Z,101366.50
2023-05-08T02:03:40.785Z,101406.00
2023-05-08T02:04:15.810Z,101399.66
2023-05-08T02:04:50.488Z,101387.75
2023-05-08T02:05:31.713Z,101401.47
2023-05-08T02:06:06.805Z,101404.25
2023-05-08T02:06:40.946Z,101405.03
2023-05-08T02:07:21.736Z,101389.38
2023-05-08T02:07:56.895Z,101408.69
2023-05-08T02:08:31.919Z,101410.31
2023-05-08T02:09:15.697Z,101401.38
2023-05-08T02:09:50.815Z,101395.47
2023-05-08T02:10:24.839Z,101391.84
2023-05-08T02:11:05.667Z,101411.88
2023-05-08T02:11:39.812Z,101404.84
2023-05-08T02:12:13.977Z,101399.03
2023-05-08T02:12:54.778Z,101406.94
2023-05-08T02:13:29.088Z,101398.06
2023-05-08T02:14:03.360Z,101399.66
2023-05-08T02:14:45.709Z,101379.31
2023-05-08T02:15:20.750Z,101405.53
2023-05-08T02:15:55.225Z,101405.72
2023-05-08T02:16:36.672Z,101392.66
2023-05-08T02:17:11.756Z,101409.19
2023-05-08T02:17:49.120Z,101402.22
2023-05-08T02:18:31.689Z,101402.41
2023-05-08T02:19:07.807Z,101374.63
2023-05-08T02:19:41.858Z,101384.16
2023-05-08T02:20:22.691Z,101362.28
2023-05-08T02:20:57.794Z,101400.59
2023-05-08T02:21:31.993Z,101404.84
2023-05-08T02:22:12.682Z,101394.34
2023-05-08T02:22:48.824Z,101387.38
2023-05-08T02:23:24.675Z,101399.47
2023-05-08T02:24:05.676Z,101406.59
2023-05-08T02:24:40.804Z,101391.81
2023-05-08T02:25:16.250Z,101401.19
2023-05-08T02:25:59.719Z,101394.34
2023-05-08T02:26:33.771Z,101403.69
2023-05-08T02:27:08.794Z,101403.97
2023-05-08T02:27:51.686Z,101404.13
2023-05-08T02:28:26.782Z,101405.38
2023-05-08T02:29:02.592Z,101411.53
2023-05-08T02:29:43.664Z,101396.50
2023-05-08T02:30:21.739Z,101396.84
2023-05-08T02:30:57.595Z,101405.53
2023-05-08T02:31:38.769Z,101412.63
2023-05-08T02:32:14.926Z,101403.03
2023-05-08T02:32:49.961Z,101408.16
2023-05-08T02:33:31.698Z,101403.69
2023-05-08T02:34:06.988Z,101412.47
2023-05-08T02:34:45.405Z,101387.91
2023-05-08T02:35:36.699Z,101417.72
2023-05-08T02:36:20.847Z,101410.75
2023-05-08T02:37:01.645Z,101410.28
2023-05-08T02:37:42.758Z,101393.88
2023-05-08T02:38:23.720Z,101407.94
2023-05-08T02:39:05.820Z,101411.25
2023-05-08T02:39:46.663Z,101415.59
2023-05-08T02:40:31.825Z,101418.34
2023-05-08T02:41:13.681Z,101408.56
2023-05-08T02:41:54.759Z,101410.56
2023-05-08T02:42:34.667Z,101417.44
2023-05-08T02:43:14.729Z,101393.97
2023-05-08T02:43:56.684Z,101407.78
2023-05-08T02:44:36.782Z,101401.88
2023-05-08T02:45:18.675Z,101424.06
2023-05-08T02:46:36.870Z,101414.97
2023-05-08T02:47:29.702Z,101414.19
2023-05-08T02:48:20.669Z,101396.75
2023-05-08T02:49:08.738Z,101413.50
2023-05-08T02:50:21.024Z,101413.16
2023-05-08T02:51:17.741Z,101410.09
2023-05-08T02:52:01.743Z,101423.91
2023-05-08T02:52:54.741Z,101424.94
2023-05-08T02:53:46.736Z,101423.16
2023-05-08T02:54:48.791Z,101423.91
2023-05-08T02:55:47.251Z,101420.47
2023-05-08T02:56:43.618Z,101413.84
2023-05-08T02:57:34.539Z,101426.84
2023-05-08T02:58:20.837Z,101420.75
2023-05-08T02:59:13.667Z,101423.38
2023-05-08T02:59:53.686Z,101417.41
2023-05-08T03:00:32.701Z,101427.81
2023-05-08T03:01:21.888Z,101410.34
2023-05-08T03:02:16.752Z,101424.41
2023-05-08T03:02:56.230Z,101427.28
2023-05-08T03:03:50.944Z,101419.56
2023-05-08T03:04:49.924Z,101429.78
2023-05-08T03:05:30.802Z,101422.69
2023-05-08T03:06:26.636Z,101425.28
2023-05-08T03:07:01.505Z,101417.31
2023-05-08T03:07:52.635Z,101433.91
2023-05-08T03:08:33.061Z,101424.25
2023-05-08T03:09:20.615Z,101405.69
2023-05-08T03:10:15.003Z,101431.03
2023-05-08T03:11:14.623Z,101411.16
2023-05-08T03:12:18.649Z,101426.84
2023-05-08T03:13:17.668Z,101432.31
2023-05-08T03:14:12.650Z,101436.75
2023-05-08T03:15:26.666Z,101430.50
2023-05-08T03:16:31.675Z,101433.75
2023-05-08T03:17:29.697Z,101424.53
2023-05-08T03:18:32.618Z,101437.56
2023-05-08T03:19:35.600Z,101443.97
2023-05-08T03:20:31.643Z,101442.94
2023-05-08T03:21:27.606Z,101442.94
2023-05-08T03:22:22.616Z,101439.16
2023-05-08T03:23:18.614Z,101434.00
2023-05-08T03:24:14.636Z,101440.00
2023-05-08T03:25:09.619Z,101418.22
2023-05-08T03:25:57.643Z,101446.78
2023-05-08T03:26:31.672Z,101450.34
2023-05-08T03:27:19.608Z,101440.09
2023-05-08T03:27:53.668Z,101446.25
2023-05-08T03:28:42.595Z,101405.28
2023-05-08T03:29:16.918Z,101450.03
2023-05-08T03:30:04.637Z,101449.91
2023-05-08T03:30:46.743Z,101456.03
2023-05-08T03:31:28.704Z,101455.38
2023-05-08T03:32:08.711Z,101451.63
2023-05-08T03:32:52.703Z,101443.34
2023-05-08T03:33:33.727Z,101438.06
2023-05-08T03:34:15.575Z,101450.03
2023-05-08T03:34:56.706Z,101446.44
2023-05-08T03:35:38.614Z,101451.81
2023-05-08T03:36:13.541Z,101449.75
2023-05-08T03:36:54.689Z,101454.41
2023-05-08T03:37:28.753Z,101444.94
2023-05-08T03:38:02.800Z,101458.91
2023-05-08T03:38:42.605Z,101425.75
2023-05-08T03:39:16.689Z,101449.28
2023-05-08T03:39:52.098Z,101458.72
2023-05-08T03:40:32.599Z,101460.66
2023-05-08T03:41:06.662Z,101453.53
2023-05-08T03:41:40.608Z,101460.66
2023-05-08T03:42:27.652Z,101453.88
2023-05-08T03:43:03.064Z,101453.69
2023-05-08T03:43:37.971Z,101440.81
2023-05-08T03:44:18.644Z,101455.41
2023-05-08T03:44:53.794Z,101457.00
2023-05-08T03:45:27.937Z,101448.16
2023-05-08T03:46:08.661Z,101453.53
2023-05-08T03:46:42.796Z,101454.59
2023-05-08T03:47:18.836Z,101448.53
2023-05-08T03:48:00.655Z,101467.16
2023-05-08T03:48:35.769Z,101438.00
2023-05-08T03:49:10.096Z,101460.03
2023-05-08T03:49:50.632Z,101451.22
2023-05-08T03:50:24.717Z,101456.25
2023-05-08T03:50:59.074Z,101419.63
2023-05-08T03:51:39.586Z,101454.25
2023-05-08T03:52:13.734Z,101453.25
2023-05-08T03:52:48.439Z,101449.84
2023-05-08T03:53:28.629Z,101462.88
2023-05-08T03:54:02.652Z,101450.69
2023-05-08T03:54:36.355Z,101462.00
2023-05-08T03:55:17.575Z,101441.66
2023-05-08T03:55:51.679Z,101451.91
2023-05-08T03:56:26.405Z,101455.94
2023-05-08T03:57:07.591Z,101462.63
2023-05-08T03:58:20.967Z,101466.69
2023-05-08T03:59:40.650Z,101463.84
2023-05-08T04:00:36.732Z,101452.69
2023-05-08T04:01:56.681Z,101465.72
2023-05-08T04:02:44.743Z,101425.91
2023-05-08T04:04:02.633Z,101423.09
2023-05-08T04:04:54.637Z,101472.06
2023-05-08T04:05:41.885Z,101443.81
2023-05-08T04:06:49.916Z,101469.53
2023-05-08T04:07:37.898Z,101475.41
2023-05-08T04:08:38.602Z,101454.53
2023-05-08T04:09:24.873Z,101452.78
2023-05-08T04:10:27.609Z,101474.03
2023-05-08T04:11:18.319Z,101460.78
2023-05-08T04:12:18.665Z,101478.06
2023-05-08T04:13:11.046Z,101439.34
2023-05-08T04:14:03.707Z,101465.28
2023-05-08T04:14:56.948Z,101454.59
2023-05-08T04:15:48.592Z,101471.81
2023-05-08T04:16:27.090Z,101475.22
2023-05-08T04:17:17.650Z,101474.19
2023-05-08T04:17:57.620Z,101474.59
2023-05-08T04:18:44.702Z,101482.50
2023-05-08T04:19:27.829Z,101476.81
2023-05-08T04:20:18.584Z,101482.03
2023-05-08T04:21:01.590Z,101444.34
2023-05-08T04:21:45.209Z,101463.47
2023-05-08T04:22:28.641Z,101480.28
2023-05-08T04:23:09.752Z,101479.03
2023-05-08T04:23:51.627Z,101481.63
2023-05-08T04:24:34.693Z,101488.50
2023-05-08T04:25:15.831Z,101485.97
2023-05-08T04:25:58.676Z,101485.97
2023-05-08T04:26:39.607Z,101489.38
2023-05-08T04:27:21.181Z,101485.91
2023-05-08T04:28:03.571Z,101487.88
2023-05-08T04:28:46.739Z,101459.31
2023-05-08T04:29:27.604Z,101493.38
2023-05-08T04:30:08.709Z,101499.25
2023-05-08T04:30:48.600Z,101477.59
2023-05-08T04:31:30.553Z,101478.41
2023-05-08T04:32:12.728Z,101487.69
2023-05-08T04:32:53.673Z,101499.25
2023-05-08T04:33:28.475Z,101498.31
2023-05-08T04:34:11.549Z,101498.94
2023-05-08T04:34:45.672Z,101468.13
2023-05-08T04:35:19.372Z,101492.28
2023-05-08T04:35:59.555Z,101481.31
2023-05-08T04:36:33.977Z,101487.41
2023-05-08T04:37:08.534Z,101493.56
2023-05-08T04:37:50.620Z,101498.06
2023-05-08T04:38:24.648Z,101495.69
2023-05-08T04:38:59.229Z,101502.41
2023-05-08T04:39:40.276Z,101485.94
2023-05-08T04:40:15.701Z,101479.88
2023-05-08T04:40:49.352Z,101497.00
2023-05-08T04:41:30.613Z,101473.78
2023-05-08T04:42:04.877Z,101503.75
2023-05-08T04:42:39.665Z,101498.59
2023-05-08T04:43:19.631Z,101497.25
2023-05-08T04:43:53.673Z,101496.13
2023-05-08T04:44:27.577Z,101506.78
2023-05-08T04:45:07.559Z,101503.00
2023-05-08T04:45:41.645Z,101492.44
2023-05-08T04:46:15.596Z,101504.16
2023-05-08T04:46:56.577Z,101502.28
2023-05-08T04:47:31.002Z,101503.53
2023-05-08T04:48:05.987Z,101506.31
2023-05-08T04:48:45.643Z,101478.03
2023-05-08T04:49:19.666Z,101500.47
2023-05-08T04:49:53.380Z,101504.03
2023-05-08T04:50:33.608Z,101507.47
2023-05-08T04:51:07.657Z,101507.06
2023-05-08T04:51:41.374Z,101510.56
2023-05-08T04:52:21.572Z,101490.22
2023-05-08T04:52:55.791Z,101505.06
2023-05-08T04:53:29.318Z,101506.66
2023-05-08T04:54:10.636Z,101480.34
2023-05-08T04:54:44.682Z,101500.31
2023-05-08T04:55:18.489Z,101509.53
2023-05-08T04:55:59.646Z,101506.59
2023-05-08T04:56:33.643Z,101502.34
2023-05-08T04:57:08.145Z,101516.50
2023-05-08T04:57:48.609Z,101511.28
2023-05-08T04:58:28.980Z,101506.50
2023-05-08T04:59:09.543Z,101505.19
2023-05-08T04:59:49.590Z,101514.75
2023-05-08T05:00:24.666Z,101497.94
2023-05-08T05:01:02.607Z,101506.28
2023-05-08T05:01:42.576Z,101483.84
2023-05-08T05:02:16.669Z,101510.84
2023-05-08T05:02:52.908Z,101509.03
2023-05-08T05:03:32.615Z,101513.75
2023-05-08T05:04:07.408Z,101500.00
2023-05-08T05:04:47.672Z,101511.72
2023-05-08T05:05:27.749Z,101517.91
2023-05-08T05:06:08.737Z,101515.13
2023-05-08T05:06:48.683Z,101514.78
2023-05-08T05:07:28.594Z,101519.38
2023-05-08T05:08:09.938Z,101511.91
2023-05-08T05:08:50.562Z,101498.78
2023-05-08T05:09:30.777Z,101514.44
2023-05-08T05:10:11.558Z,101514.88
2023-05-08T05:10:51.725Z,101527.19
2023-05-08T05:11:32.518Z,101528.00
2023-05-08T05:12:14.682Z,101520.84
2023-05-08T05:12:54.606Z,101517.03
2023-05-08T05:13:35.635Z,101526.41
2023-05-08T05:14:15.612Z,101521.69
2023-05-08T05:14:56.658Z,101493.66
2023-05-08T05:15:36.570Z,101522.41
2023-05-08T05:16:17.727Z,101519.63
2023-05-08T05:16:57.548Z,101519.72
2023-05-08T05:17:37.779Z,101529.38
2023-05-08T05:18:19.571Z,101518.75
2023-05-08T05:19:00.580Z,101529.53
2023-05-08T05:19:47.503Z,101511.63
2023-05-08T05:20:21.676Z,101522.50
2023-05-08T05:21:05.688Z,101526.31
2023-05-08T05:21:46.705Z,101517.47
2023-05-08T05:22:27.502Z,101528.50
2023-05-08T05:23:07.760Z,101507.13
2023-05-08T05:23:47.470Z,101528.16
2023-05-08T05:24:27.638Z,101509.56
2023-05-08T05:25:07.593Z,101530.75
2023-05-08T05:25:47.674Z,101529.38
2023-05-08T05:26:28.569Z,101527.28
2023-05-08T05:27:11.616Z,101521.28
2023-05-08T05:27:52.619Z,101534.41
2023-05-08T05:28:32.612Z,101530.44
2023-05-08T05:29:13.502Z,101529.38
2023-05-08T05:29:53.983Z,101529.28
2023-05-08T05:30:34.516Z,101514.78
2023-05-08T05:31:14.571Z,101522.41
2023-05-08T05:31:56.640Z,101515.44
2023-05-08T05:32:36.775Z,101525.56
2023-05-08T05:33:16.588Z,101526.69
2023-05-08T05:33:56.929Z,101525.72
2023-05-08T05:34:39.539Z,101530.22
2023-05-08T05:35:19.575Z,101528.06
2023-05-08T05:36:00.572Z,101526.06
2023-05-08T05:36:40.650Z,101536.50
2023-05-08T05:37:20.514Z,101529.91
2023-05-08T05:38:00.637Z,101533.19
2023-05-08T05:38:40.528Z,101539.34
2023-05-08T05:39:20.746Z,101529.38
2023-05-08T05:40:01.531Z,101533.13
2023-05-08T05:40:41.624Z,101506.59
2023-05-08T05:41:21.524Z,101541.19
2023-05-08T05:42:02.796Z,101537.44
2023-05-08T05:42:42.502Z,101546.56
2023-05-08T05:43:22.640Z,101543.00
2023-05-08T05:44:03.558Z,101540.47
2023-05-08T05:44:44.701Z,101549.63
2023-05-08T05:45:25.502Z,101545.09
2023-05-08T05:46:13.716Z,101524.31
2023-05-08T05:46:55.588Z,101554.19
2023-05-08T05:47:36.663Z,101525.53
2023-05-08T05:48:17.544Z,101546.97
2023-05-08T05:48:57.563Z,101552.47
2023-05-08T05:49:38.489Z,101518.06
2023-05-08T05:50:18.745Z,101543.63
2023-05-08T05:50:58.511Z,101555.00
2023-05-08T05:51:38.620Z,101553.94
2023-05-08T05:52:19.477Z,101557.50
2023-05-08T05:53:00.950Z,101532.84
2023-05-08T05:53:40.510Z,101548.44
2023-05-08T05:54:20.573Z,101554.88
2023-05-08T05:55:00.466Z,101552.94
2023-05-08T05:55:41.270Z,101557.03
2023-05-08T05:56:21.593Z,101546.19
2023-05-08T05:57:01.776Z,101550.00
2023-05-08T05:57:41.523Z,101559.41
2023-05-08T05:58:21.632Z,101554.63
2023-05-08T05:59:01.814Z,101555.31
2023-05-08T05:59:43.670Z,101554.69
2023-05-08T06:00:24.539Z,101561.66
2023-05-08T06:01:05.603Z,101561.19
2023-05-08T06:01:46.541Z,101552.75
2023-05-08T06:02:59.814Z,101540.78
2023-05-08T06:03:40.606Z,101561.41
2023-05-08T06:04:21.615Z,101555.63
2023-05-08T06:04:55.604Z,101558.13
2023-05-08T06:05:43.548Z,101558.94
2023-05-08T06:06:17.666Z,101538.59
2023-05-08T06:07:04.833Z,101555.97
2023-05-08T06:07:38.720Z,101553.72
2023-05-08T06:08:25.558Z,101557.38
2023-05-08T06:08:59.728Z,101559.03
2023-05-08T06:09:48.592Z,101563.00
2023-05-08T06:10:22.686Z,101547.34
2023-05-08T06:11:10.535Z,101557.59
2023-05-08T06:11:44.574Z,101553.75
2023-05-08T06:12:32.485Z,101552.69
2023-05-08T06:13:06.668Z,101553.63
2023-05-08T06:13:53.456Z,101547.78
2023-05-08T06:14:34.636Z,101549.88
2023-05-08T06:15:15.583Z,101558.19
2023-05-08T06:15:58.351Z,101562.44
2023-05-08T06:16:39.505Z,101550.97
2023-05-08T06:17:34.648Z,101561.47
2023-05-08T06:18:18.485Z,101560.63
2023-05-08T06:18:59.530Z,101565.75
2023-05-08T06:19:39.520Z,101559.28
2023-05-08T06:20:27.553Z,101559.28
2023-05-08T06:21:01.269Z,101560.16
2023-05-08T06:21:48.456Z,101552.16
2023-05-08T06:22:24.354Z,101562.28
2023-05-08T06:23:12.608Z,101538.56
2023-05-08T06:23:46.216Z,101556.47
2023-05-08T06:24:33.488Z,101565.44
2023-05-08T06:25:08.445Z,101561.88
2023-05-08T06:25:49.465Z,101569.19
2023-05-08T06:26:23.717Z,101566.50
2023-05-08T06:26:57.373Z,101564.56
2023-05-08T06:27:38.576Z,101561.31
2023-05-08T06:28:12.611Z,101566.53
2023-05-08T06:28:46.220Z,101559.72
2023-05-08T06:29:27.455Z,101558.84
2023-05-08T06:30:01.629Z,101564.13
2023-05-08T06:30:35.412Z,101569.03
2023-05-08T06:31:15.435Z,101553.34
2023-05-08T06:31:49.648Z,101555.72
2023-05-08T06:32:23.239Z,101552.47
2023-05-08T06:33:04.545Z,101563.53
2023-05-08T06:33:38.838Z,101560.75
2023-05-08T06:34:13.522Z,101570.28
2023-05-08T06:34:54.611Z,101566.44
2023-05-08T06:35:28.592Z,101569.25
2023-05-08T06:36:03.750Z,101558.03
2023-05-08T06:36:44.406Z,101571.84
2023-05-08T06:37:18.572Z,101572.72
2023-05-08T06:37:52.195Z,101576.97
2023-05-08T06:38:32.448Z,101573.19
2023-05-08T06:39:27.416Z,101566.94
2023-05-08T06:40:22.618Z,101578.44
2023-05-08T06:41:16.489Z,101577.94
2023-05-08T06:42:03.440Z,101542.06
2023-05-08T06:42:37.527Z,101573.19
2023-05-08T06:43:24.405Z,101560.03
2023-05-08T06:43:58.495Z,101564.72
2023-05-08T06:44:47.468Z,101572.53
2023-05-08T06:45:21.564Z,101564.25
2023-05-08T06:46:08.494Z,101549.41
2023-05-08T06:46:42.586Z,101558.47
2023-05-08T06:47:23.622Z,101568.97
2023-05-08T06:48:03.626Z,101548.63
2023-05-08T06:48:43.431Z,101570.22
2023-05-08T06:49:23.508Z,101574.28
2023-05-08T06:50:03.399Z,101568.88
2023-05-08T06:50:48.005Z,101576.09
2023-05-08T06:51:29.474Z,101573.22
2023-05-08T06:52:09.515Z,101574.47
2023-05-08T06:52:50.493Z,101574.78
2023-05-08T06:53:30.661Z,101577.97
2023-05-08T06:54:14.415Z,101575.06
2023-05-08T06:54:54.515Z,101561.94
2023-05-08T06:55:34.465Z,101573.78
2023-05-08T06:56:29.418Z,101573.91
2023-05-08T06:57:23.435Z,101563.84
2023-05-08T06:58:11.663Z,101569.84
2023-05-08T06:58:53.701Z,101557.69
2023-05-08T06:59:51.417Z,101569.06
2023-05-08T07:00:25.665Z,101563.00
2023-05-08T07:01:13.494Z,101578.44
2023-05-08T07:01:47.594Z,101571.78
2023-05-08T07:02:34.476Z,101571.56
2023-05-08T07:03:08.585Z,101560.97
2023-05-08T07:03:49.518Z,101565.13
2023-05-08T07:04:31.992Z,101558.50
2023-05-08T07:05:13.721Z,101575.63
2023-05-08T07:05:54.575Z,101563.69
2023-05-08T07:06:34.460Z,101579.50
2023-05-08T07:07:15.348Z,101576.25
2023-05-08T07:07:55.500Z,101571.59
2023-05-08T07:08:35.605Z,101575.00
2023-05-08T07:09:16.953Z,101579.88
2023-05-08T07:09:57.519Z,101585.28
2023-05-08T07:10:37.372Z,101581.81
2023-05-08T07:11:17.489Z,101575.25
2023-05-08T07:11:58.421Z,101582.59
2023-05-08T07:12:38.606Z,101579.13
2023-05-08T07:13:19.599Z,101578.91
2023-05-08T07:14:00.211Z,101565.34
2023-05-08T07:14:40.470Z,101577.75
2023-05-08T07:15:41.082Z,101568.91
2023-05-08T07:16:22.457Z,101584.44
2023-05-08T07:17:06.803Z,101579.88
2023-05-08T07:17:48.440Z,101589.16
2023-05-08T07:18:28.459Z,101588.97
2023-05-08T07:19:08.418Z,101586.50
2023-05-08T07:19:55.475Z,101555.09
2023-05-08T07:20:49.462Z,101588.16
2023-05-08T07:21:43.477Z,101584.88
2023-05-08T07:22:37.461Z,101572.94
2023-05-08T07:23:31.396Z,101587.00
2023-05-08T07:24:25.522Z,101581.59
2023-05-08T07:25:13.560Z,101585.16
2023-05-08T07:25:47.551Z,101564.25
2023-05-08T07:26:34.403Z,101576.56
2023-05-08T07:27:08.579Z,101549.31
2023-05-08T07:27:55.448Z,101576.66
2023-05-08T07:28:29.454Z,101580.97
2023-05-08T07:29:16.401Z,101574.03
2023-05-08T07:29:50.640Z,101578.38
2023-05-08T07:30:38.437Z,101571.72
2023-05-08T07:31:12.605Z,101585.97
2023-05-08T07:31:59.542Z,101577.00
2023-05-08T07:32:33.512Z,101586.19
2023-05-08T07:33:20.462Z,101578.84
2023-05-08T07:33:54.449Z,101576.50
2023-05-08T07:34:41.382Z,101577.59
2023-05-08T07:35:15.721Z,101571.09
2023-05-08T07:36:03.427Z,101586.44
2023-05-08T07:36:37.816Z,101569.78
2023-05-08T07:37:24.380Z,101580.09
2023-05-08T07:37:58.674Z,101578.31
2023-05-08T07:38:46.393Z,101583.59
2023-05-08T07:39:20.616Z,101583.25
2023-05-08T07:40:07.407Z,101577.84
2023-05-08T07:40:41.653Z,101587.16
2023-05-08T07:41:28.412Z,101576.56
2023-05-08T07:42:02.465Z,101569.09
2023-05-08T07:42:51.363Z,101587.44
2023-05-08T07:43:25.482Z,101585.47
2023-05-08T07:44:13.395Z,101588.75
2023-05-08T07:44:54.499Z,101584.41
2023-05-08T07:45:42.454Z,101583.34
2023-05-08T07:46:23.690Z,101588.75
2023-05-08T07:47:04.485Z,101575.34
2023-05-08T07:48:05.656Z,101582.72
2023-05-08T07:48:46.452Z,101584.91
2023-05-08T07:49:26.487Z,101577.09
2023-05-08T07:50:06.450Z,101557.81
2023-05-08T07:50:46.512Z,101580.56
2023-05-08T07:51:26.402Z,101579.28
2023-05-08T07:52:13.453Z,101569.66
2023-05-08T07:53:07.384Z,101581.13
2023-05-08T07:54:01.394Z,101577.09
2023-05-08T07:54:55.452Z,101584.47
2023-05-08T07:55:49.378Z,101581.88
2023-05-08T07:56:43.410Z,101574.50
2023-05-08T07:57:31.440Z,101595.75
2023-05-08T07:58:05.483Z,101586.44
2023-05-08T07:58:54.354Z,101575.81
2023-05-08T07:59:28.453Z,101581.78
2023-05-08T08:00:18.400Z,101579.75
2023-05-08T08:00:52.489Z,101579.09
2023-05-08T08:01:39.390Z,101557.31
2023-05-08T08:02:45.504Z,101581.91
2023-05-08T08:03:26.594Z,101578.66
2023-05-08T08:04:07.438Z,101577.34
2023-05-08T08:04:47.429Z,101578.53
2023-05-08T08:05:28.358Z,101580.06
2023-05-08T08:06:08.427Z,101576.50
2023-05-08T08:06:48.340Z,101578.91
2023-05-08T08:07:29.743Z,101577.63
2023-05-08T08:08:12.367Z,101578.19
2023-05-08T08:08:52.441Z,101569.16
2023-05-08T08:09:32.407Z,101575.66
2023-05-08T08:10:13.508Z,101576.66
2023-05-08T08:10:53.358Z,101572.66
2023-05-08T08:11:34.453Z,101575.16
2023-05-08T08:12:14.416Z,101584.34
2023-05-08T08:12:54.573Z,101573.75
2023-05-08T08:13:34.494Z,101580.69
2023-05-08T08:14:14.426Z,101577.00
2023-05-08T08:14:54.313Z,101582.19
2023-05-08T08:15:35.437Z,101549.34
2023-05-08T08:16:15.344Z,101550.56
2023-05-08T08:16:55.533Z,101561.63
2023-05-08T08:17:35.448Z,101585.19